Parish, New York
Current Conditions -  °F | °C
As of 6:54 AM on Friday 31 Oct 2014 (Local Time) from KFZY Reporting Station
Overcast Overcast  
Wind Chill: 40°   Ceiling: 4500
Heat Index: 40°   Visibility: 8mi
Dew Point: 37°   Wind: 0mph
Humidity: 89%   Direction: NA
Pressure: 30"   Gusts: NA
Location:  43.41°N, 76.13°W
Report Text: KFZY 311054Z AUTO 00000KT 8SM OVC045 04/03 A3000 RMK AO2 SLP163 T00440028
Loading
Personal Weather Stations






























Interactive Weather Map
Tropical Storm Tracking
New forecast layout! Learn more

10-Day Weather Forecast

Advertisements
Track Severe Weather on mobile